sensor_id;sensor_type;location;lat;lon;timestamp;temperature;humidity
5023;DHT22;2530;47.990;7.866;2024-03-23T00:57:37;16.30;99.90
5023;DHT22;2530;47.990;7.866;2024-03-23T01:00:04;16.00;99.90
5023;DHT22;2530;47.990;7.866;2024-03-23T01:02:34;16.40;99.90
5023;DHT22;2530;47.990;7.866;2024-03-23T01:04:59;15.90;99.90
5023;DHT22;2530;47.990;7.866;2024-03-23T01:07:25;16.60;99.90
5023;DHT22;2530;47.990;7.866;2024-03-23T01:12:18;16.80;99.90
5023;DHT22;2530;47.990;7.866;2024-03-23T01:14:44;16.10;99.90
5023;DHT22;2530;47.990;7.866;2024-03-23T01:17:09;16.60;99.90
5023;DHT22;2530;47.990;7.866;2024-03-23T01:19:35;16.50;99.90
5023;DHT22;2530;47.990;7.866;2024-03-23T01:24:26;15.90;99.90
5023;DHT22;2530;47.990;7.866;2024-03-23T01:26:52;16.70;99.90
5023;DHT22;2530;47.990;7.866;2024-03-23T01:29:17;16.80;99.90
5023;DHT22;2530;47.990;7.866;2024-03-23T01:31:45;16.10;99.90
5023;DHT22;2530;47.990;7.866;2024-03-23T01:34:11;16.50;99.90
5023;DHT22;2530;47.990;7.866;2024-03-23T01:36:36;16.10;99.90
5023;DHT22;2530;47.990;7.866;2024-03-23T01:39:02;16.50;99.90
5023;DHT22;2530;47.990;7.866;2024-03-23T01:41:28;16.50;99.90
5023;DHT22;2530;47.990;7.866;2024-03-23T01:43:55;16.70;99.90
5023;DHT22;2530;47.990;7.866;2024-03-23T01:46:20;16.50;99.90
5023;DHT22;2530;47.990;7.866;2024-03-23T01:48:46;16.80;99.90
5023;DHT22;2530;47.990;7.866;2024-03-23T01:51:13;16.20;99.90
5023;DHT22;2530;47.990;7.866;2024-03-23T01:53:38;16.20;99.90
5023;DHT22;2530;47.990;7.866;2024-03-23T02:00:57;16.10;99.90
5023;DHT22;2530;47.990;7.866;2024-03-23T02:03:27;15.70;99.90
5023;DHT22;2530;47.990;7.866;2024-03-23T02:05:55;16.20;99.90
5023;DHT22;2530;47.990;7.866;2024-03-23T02:08:22;15.90;99.90
5023;DHT22;2530;47.990;7.866;2024-03-23T02:10:49;15.80;99.90
5023;DHT22;2530;47.990;7.866;2024-03-23T02:15:41;16.10;99.90
5023;DHT22;2530;47.990;7.866;2024-03-23T02:18:08;15.30;99.90
5023;DHT22;2530;47.990;7.866;2024-03-23T02:20:34;15.60;99.90
5023;DHT22;2530;47.990;7.866;2024-03-23T02:23:00;15.90;99.90
5023;DHT22;2530;47.990;7.866;2024-03-23T02:25:26;16.20;99.90
5023;DHT22;2530;47.990;7.866;2024-03-23T02:27:51;15.60;99.90
5023;DHT22;2530;47.990;7.866;2024-03-23T02:30:19;15.90;99.90
5023;DHT22;2530;47.990;7.866;2024-03-23T02:32:45;15.90;99.90
5023;DHT22;2530;47.990;7.866;2024-03-23T02:37:36;15.50;99.90
5023;DHT22;2530;47.990;7.866;2024-03-23T02:42:28;14.90;99.90
5023;DHT22;2530;47.990;7.866;2024-03-23T02:44:54;15.30;99.90
5023;DHT22;2530;47.990;7.866;2024-03-23T02:47:20;15.10;99.90
5023;DHT22;2530;47.990;7.866;2024-03-23T02:49:45;15.20;99.90
5023;DHT22;2530;47.990;7.866;2024-03-23T02:52:11;15.90;99.90
5023;DHT22;2530;47.990;7.866;2024-03-23T02:54:36;15.40;99.90
5023;DHT22;2530;47.990;7.866;2024-03-23T02:57:02;15.20;99.90
5023;DHT22;2530;47.990;7.866;2024-03-23T02:59:27;15.00;99.90
5023;DHT22;2530;47.990;7.866;2024-03-23T03:01:53;14.90;99.90
5023;DHT22;2530;47.990;7.866;2024-03-23T03:06:48;15.40;99.90
5023;DHT22;2530;47.990;7.866;2024-03-23T03:09:14;15.00;99.90
5023;DHT22;2530;47.990;7.866;2024-03-23T03:11:39;14.80;99.90
5023;DHT22;2530;47.990;7.866;2024-03-23T03:14:05;14.90;99.90
5023;DHT22;2530;47.990;7.866;2024-03-23T03:16:32;15.60;99.90
5023;DHT22;2530;47.990;7.866;2024-03-23T03:18:58;14.70;99.90
5023;DHT22;2530;47.990;7.866;2024-03-23T03:21:23;15.40;99.90
5023;DHT22;2530;47.990;7.866;2024-03-23T03:23:49;15.50;99.90
5023;DHT22;2530;47.990;7.866;2024-03-23T03:26:16;15.30;99.90
5023;DHT22;2530;47.990;7.866;2024-03-23T03:28:43;15.80;99.90
5023;DHT22;2530;47.990;7.866;2024-03-23T03:31:16;16.90;99.90
5023;DHT22;2530;47.990;7.866;2024-03-23T03:33:42;15.60;99.90
5023;DHT22;2530;47.990;7.866;2024-03-23T03:36:08;15.90;99.90
5023;DHT22;2530;47.990;7.866;2024-03-23T03:38:34;15.70;99.90
5023;DHT22;2530;47.990;7.866;2024-03-23T03:41:03;15.70;99.90
5023;DHT22;2530;47.990;7.866;2024-03-23T03:45:56;15.00;99.90
5023;DHT22;2530;47.990;7.866;2024-03-23T03:48:22;15.30;99.90
5023;DHT22;2530;47.990;7.866;2024-03-23T03:50:48;14.70;99.90
5023;DHT22;2530;47.990;7.866;2024-03-23T03:53:13;14.60;99.90
5023;DHT22;2530;47.990;7.866;2024-03-23T03:55:39;15.60;99.90
5023;DHT22;2530;47.990;7.866;2024-03-23T04:00:31;14.70;99.90
5023;DHT22;2530;47.990;7.866;2024-03-23T04:02:57;14.20;99.90
5023;DHT22;2530;47.990;7.866;2024-03-23T04:05:23;14.40;99.90
5023;DHT22;2530;47.990;7.866;2024-03-23T04:07:48;14.30;99.90
5023;DHT22;2530;47.990;7.866;2024-03-23T04:10:14;14.10;99.90
5023;DHT22;2530;47.990;7.866;2024-03-23T04:15:06;13.70;99.90
5023;DHT22;2530;47.990;7.866;2024-03-23T04:20:00;14.30;99.90
5023;DHT22;2530;47.990;7.866;2024-03-23T04:22:26;14.60;99.90
5023;DHT22;2530;47.990;7.866;2024-03-23T04:24:56;14.70;99.90
5023;DHT22;2530;47.990;7.866;2024-03-23T04:27:25;14.50;99.90
5023;DHT22;2530;47.990;7.866;2024-03-23T04:34:43;14.00;99.90
5023;DHT22;2530;47.990;7.866;2024-03-23T04:39:38;14.20;99.90
5023;DHT22;2530;47.990;7.866;2024-03-23T04:42:04;13.70;99.90
5023;DHT22;2530;47.990;7.866;2024-03-23T04:44:30;14.00;99.90
5023;DHT22;2530;47.990;7.866;2024-03-23T04:51:48;14.60;99.90
5023;DHT22;2530;47.990;7.866;2024-03-23T04:54:14;14.00;99.90
5023;DHT22;2530;47.990;7.866;2024-03-23T04:56:39;14.10;99.90
5023;DHT22;2530;47.990;7.866;2024-03-23T04:59:05;13.60;99.90
5023;DHT22;2530;47.990;7.866;2024-03-23T05:01:33;13.30;99.90
5023;DHT22;2530;47.990;7.866;2024-03-23T05:03:59;13.40;99.90
5023;DHT22;2530;47.990;7.866;2024-03-23T05:06:25;13.50;99.90
5023;DHT22;2530;47.990;7.866;2024-03-23T05:08:51;13.30;99.90
5023;DHT22;2530;47.990;7.866;2024-03-23T05:11:17;13.10;99.90
5023;DHT22;2530;47.990;7.866;2024-03-23T05:13:43;12.80;99.90
5023;DHT22;2530;47.990;7.866;2024-03-23T05:18:35;13.40;99.90
5023;DHT22;2530;47.990;7.866;2024-03-23T05:21:01;13.00;99.90
5023;DHT22;2530;47.990;7.866;2024-03-23T05:23:28;13.00;99.90
5023;DHT22;2530;47.990;7.866;2024-03-23T05:25:54;12.70;99.90
5023;DHT22;2530;47.990;7.866;2024-03-23T05:28:21;12.40;99.90
5023;DHT22;2530;47.990;7.866;2024-03-23T05:33:19;12.40;99.90
5023;DHT22;2530;47.990;7.866;2024-03-23T05:35:45;12.40;99.90
5023;DHT22;2530;47.990;7.866;2024-03-23T05:40:37;12.60;99.90
5023;DHT22;2530;47.990;7.866;2024-03-23T05:43:05;12.40;99.90
5023;DHT22;2530;47.990;7.866;2024-03-23T05:45:31;12.10;99.90
5023;DHT22;2530;47.990;7.866;2024-03-23T05:47:57;12.00;99.90
5023;DHT22;2530;47.990;7.866;2024-03-23T05:50:23;12.50;99.90
5023;DHT22;2530;47.990;7.866;2024-03-23T05:52:49;12.30;99.90
5023;DHT22;2530;47.990;7.866;2024-03-23T05:55:15;12.10;99.90
5023;DHT22;2530;47.990;7.866;2024-03-23T05:57:40;12.00;99.90
5023;DHT22;2530;47.990;7.866;2024-03-23T06:05:07;12.50;99.90
5023;DHT22;2530;47.990;7.866;2024-03-23T06:09:58;12.10;99.90
5023;DHT22;2530;47.990;7.866;2024-03-23T06:14:50;12.10;99.90
5023;DHT22;2530;47.990;7.866;2024-03-23T06:17:15;11.50;99.90
5023;DHT22;2530;47.990;7.866;2024-03-23T06:24:33;10.90;99.90
5023;DHT22;2530;47.990;7.866;2024-03-23T06:26:58;10.50;99.90
5023;DHT22;2530;47.990;7.866;2024-03-23T06:29:24;11.00;99.90
5023;DHT22;2530;47.990;7.866;2024-03-23T06:31:56;11.00;99.90
5023;DHT22;2530;47.990;7.866;2024-03-23T06:39:15;9.50;99.90
5023;DHT22;2530;47.990;7.866;2024-03-23T06:48:59;8.90;99.90
5023;DHT22;2530;47.990;7.866;2024-03-23T06:53:51;9.50;99.90
5023;DHT22;2530;47.990;7.866;2024-03-23T07:01:08;9.70;99.90
5023;DHT22;2530;47.990;7.866;2024-03-23T07:03:34;9.50;99.90
5023;DHT22;2530;47.990;7.866;2024-03-23T07:08:25;9.50;99.90
5023;DHT22;2530;47.990;7.866;2024-03-23T07:15:43;9.60;99.90
5023;DHT22;2530;47.990;7.866;2024-03-23T07:18:08;9.60;99.90
5023;DHT22;2530;47.990;7.866;2024-03-23T07:23:00;9.90;99.90
5023;DHT22;2530;47.990;7.866;2024-03-23T07:25:26;9.60;99.90
5023;DHT22;2530;47.990;7.866;2024-03-23T07:35:11;9.50;99.90
5023;DHT22;2530;47.990;7.866;2024-03-23T07:37:37;9.80;99.90
5023;DHT22;2530;47.990;7.866;2024-03-23T07:42:29;9.30;99.90
5023;DHT22;2530;47.990;7.866;2024-03-23T07:44:54;9.30;99.90
5023;DHT22;2530;47.990;7.866;2024-03-23T07:49:48;9.10;99.90
5023;DHT22;2530;47.990;7.866;2024-03-23T07:57:06;9.70;99.90
5023;DHT22;2530;47.990;7.866;2024-03-23T07:59:32;9.60;99.90
5023;DHT22;2530;47.990;7.866;2024-03-23T08:01:59;9.10;99.90
5023;DHT22;2530;47.990;7.866;2024-03-23T08:04:25;8.20;99.90
5023;DHT22;2530;47.990;7.866;2024-03-23T08:09:16;9.10;99.90
5023;DHT22;2530;47.990;7.866;2024-03-23T08:14:12;9.00;99.90
5023;DHT22;2530;47.990;7.866;2024-03-23T08:19:03;9.00;99.90
5023;DHT22;2530;47.990;7.866;2024-03-23T08:21:29;9.50;99.90
5023;DHT22;2530;47.990;7.866;2024-03-23T08:23:54;8.60;99.90
5023;DHT22;2530;47.990;7.866;2024-03-23T08:31:13;9.30;99.90
5023;DHT22;2530;47.990;7.866;2024-03-23T08:43:29;9.80;99.90
5023;DHT22;2530;47.990;7.866;2024-03-23T08:46:14;9.50;99.90
5023;DHT22;2530;47.990;7.866;2024-03-23T08:48:44;10.10;99.90
5023;DHT22;2530;47.990;7.866;2024-03-23T08:51:12;10.00;99.90
5023;DHT22;2530;47.990;7.866;2024-03-23T08:53:39;9.80;99.90
5023;DHT22;2530;47.990;7.866;2024-03-23T08:56:05;9.00;99.90
5023;DHT22;2530;47.990;7.866;2024-03-23T08:58:35;9.90;99.90
5023;DHT22;2530;47.990;7.866;2024-03-23T09:16:06;10.00;99.90
5023;DHT22;2530;47.990;7.866;2024-03-23T09:18:34;9.50;99.90
5023;DHT22;2530;47.990;7.866;2024-03-23T09:21:00;9.70;99.90
5023;DHT22;2530;47.990;7.866;2024-03-23T09:23:26;9.60;99.90
5023;DHT22;2530;47.990;7.866;2024-03-23T09:25:52;9.00;99.90
5023;DHT22;2530;47.990;7.866;2024-03-23T09:28:17;9.60;99.90
5023;DHT22;2530;47.990;7.866;2024-03-23T09:30:43;9.10;99.90
5023;DHT22;2530;47.990;7.866;2024-03-23T09:33:12;9.20;99.90
5023;DHT22;2530;47.990;7.866;2024-03-23T09:35:42;9.20;99.90
5023;DHT22;2530;47.990;7.866;2024-03-23T09:38:08;9.80;99.90
5023;DHT22;2530;47.990;7.866;2024-03-23T09:40:35;9.70;99.90
5023;DHT22;2530;47.990;7.866;2024-03-23T09:43:06;9.80;99.90
5023;DHT22;2530;47.990;7.866;2024-03-23T09:45:35;9.50;99.90
5023;DHT22;2530;47.990;7.866;2024-03-23T09:50:27;10.00;99.90
5023;DHT22;2530;47.990;7.866;2024-03-23T09:55:18;10.60;99.90
5023;DHT22;2530;47.990;7.866;2024-03-23T09:57:44;10.30;99.90
5023;DHT22;2530;47.990;7.866;2024-03-23T10:02:37;10.20;99.90
5023;DHT22;2530;47.990;7.866;2024-03-23T10:09:55;10.10;99.90
5023;DHT22;2530;47.990;7.866;2024-03-23T10:12:22;10.40;99.90
5023;DHT22;2530;47.990;7.866;2024-03-23T10:14:49;11.70;99.90
5023;DHT22;2530;47.990;7.866;2024-03-23T10:17:15;9.80;99.90
5023;DHT22;2530;47.990;7.866;2024-03-23T10:19:48;10.10;99.90
5023;DHT22;2530;47.990;7.866;2024-03-23T10:22:21;9.80;99.90
5023;DHT22;2530;47.990;7.866;2024-03-23T10:24:50;10.20;99.90
5023;DHT22;2530;47.990;7.866;2024-03-23T10:27:20;10.30;99.90
5023;DHT22;2530;47.990;7.866;2024-03-23T10:29:46;10.30;99.90
5023;DHT22;2530;47.990;7.866;2024-03-23T10:32:13;10.00;99.90
5023;DHT22;2530;47.990;7.866;2024-03-23T10:34:39;9.50;99.90
5023;DHT22;2530;47.990;7.866;2024-03-23T10:37:05;9.90;99.90
5023;DHT22;2530;47.990;7.866;2024-03-23T10:39:42;8.90;99.90
5023;DHT22;2530;47.990;7.866;2024-03-23T10:42:09;7.80;99.90
5023;DHT22;2530;47.990;7.866;2024-03-23T10:44:37;7.90;99.90
5023;DHT22;2530;47.990;7.866;2024-03-23T10:47:04;7.30;99.90
5023;DHT22;2530;47.990;7.866;2024-03-23T10:49:32;7.40;99.90
5023;DHT22;2530;47.990;7.866;2024-03-23T10:54:25;6.60;99.90
5023;DHT22;2530;47.990;7.866;2024-03-23T10:56:58;6.70;99.90
5023;DHT22;2530;47.990;7.866;2024-03-23T10:59:26;6.80;99.90
5023;DHT22;2530;47.990;7.866;2024-03-23T11:01:59;6.70;99.90
5023;DHT22;2530;47.990;7.866;2024-03-23T11:04:37;6.40;99.90
5023;DHT22;2530;47.990;7.866;2024-03-23T11:09:52;7.20;99.90
5023;DHT22;2530;47.990;7.866;2024-03-23T11:14:52;6.70;99.90
5023;DHT22;2530;47.990;7.866;2024-03-23T11:17:18;7.60;99.90
5023;DHT22;2530;47.990;7.866;2024-03-23T11:19:44;7.50;99.90
5023;DHT22;2530;47.990;7.866;2024-03-23T11:22:10;7.50;99.90
5023;DHT22;2530;47.990;7.866;2024-03-23T11:24:35;7.40;99.90
5023;DHT22;2530;47.990;7.866;2024-03-23T11:27:02;8.00;99.90
5023;DHT22;2530;47.990;7.866;2024-03-23T11:29:29;7.90;99.90
5023;DHT22;2530;47.990;7.866;2024-03-23T11:31:55;9.50;99.90
5023;DHT22;2530;47.990;7.866;2024-03-23T11:34:24;8.50;99.90
5023;DHT22;2530;47.990;7.866;2024-03-23T11:36:50;8.80;99.90
5023;DHT22;2530;47.990;7.866;2024-03-23T11:39:27;8.80;99.90
5023;DHT22;2530;47.990;7.866;2024-03-23T11:41:54;8.70;99.90
5023;DHT22;2530;47.990;7.866;2024-03-23T11:44:25;8.70;99.90
5023;DHT22;2530;47.990;7.866;2024-03-23T11:46:52;8.20;99.90
5023;DHT22;2530;47.990;7.866;2024-03-23T11:49:27;8.20;99.90
5023;DHT22;2530;47.990;7.866;2024-03-23T11:51:54;8.80;99.90
5023;DHT22;2530;47.990;7.866;2024-03-23T11:54:24;8.30;99.90
5023;DHT22;2530;47.990;7.866;2024-03-23T11:59:35;8.60;99.90
5023;DHT22;2530;47.990;7.866;2024-03-23T12:02:12;9.50;99.90
5023;DHT22;2530;47.990;7.866;2024-03-23T12:04:42;9.90;99.90
5023;DHT22;2530;47.990;7.866;2024-03-23T12:07:25;10.10;99.90
5023;DHT22;2530;47.990;7.866;2024-03-23T12:10:04;11.20;99.90
5023;DHT22;2530;47.990;7.866;2024-03-23T12:15:07;13.10;99.90
5023;DHT22;2530;47.990;7.866;2024-03-23T12:20:00;12.60;99.90
5023;DHT22;2530;47.990;7.866;2024-03-23T12:22:26;11.80;99.90
5023;DHT22;2530;47.990;7.866;2024-03-23T12:24:52;11.20;99.90
5023;DHT22;2530;47.990;7.866;2024-03-23T12:27:18;11.80;99.90
5023;DHT22;2530;47.990;7.866;2024-03-23T12:29:44;11.90;99.90
5023;DHT22;2530;47.990;7.866;2024-03-23T12:32:13;11.50;99.90
5023;DHT22;2530;47.990;7.866;2024-03-23T12:37:06;10.20;99.90
5023;DHT22;2530;47.990;7.866;2024-03-23T12:41:58;11.70;99.90
5023;DHT22;2530;47.990;7.866;2024-03-23T12:44:23;12.10;99.90
5023;DHT22;2530;47.990;7.866;2024-03-23T12:46:49;13.30;99.90
5023;DHT22;2530;47.990;7.866;2024-03-23T12:49:15;12.30;99.90
5023;DHT22;2530;47.990;7.866;2024-03-23T12:51:48;12.40;99.90
5023;DHT22;2530;47.990;7.866;2024-03-23T12:56:39;10.60;99.90
5023;DHT22;2530;47.990;7.866;2024-03-23T12:59:05;10.30;99.90
5023;DHT22;2530;47.990;7.866;2024-03-23T13:03:56;9.90;99.90
5023;DHT22;2530;47.990;7.866;2024-03-23T13:08:48;10.30;99.90
5023;DHT22;2530;47.990;7.866;2024-03-23T13:11:15;10.30;99.90
5023;DHT22;2530;47.990;7.866;2024-03-23T13:13:41;10.60;99.90
5023;DHT22;2530;47.990;7.866;2024-03-23T13:16:10;10.40;99.90
5023;DHT22;2530;47.990;7.866;2024-03-23T13:21:01;10.00;99.90
5023;DHT22;2530;47.990;7.866;2024-03-23T13:23:27;11.90;99.90
5023;DHT22;2530;47.990;7.866;2024-03-23T13:28:22;11.00;99.90
5023;DHT22;2530;47.990;7.866;2024-03-23T13:30:51;11.30;99.90
5023;DHT22;2530;47.990;7.866;2024-03-23T13:35:53;10.90;99.90
5023;DHT22;2530;47.990;7.866;2024-03-23T13:38:19;11.70;99.90
5023;DHT22;2530;47.990;7.866;2024-03-23T13:40:55;11.00;99.90
5023;DHT22;2530;47.990;7.866;2024-03-23T13:43:22;10.80;99.90
5023;DHT22;2530;47.990;7.866;2024-03-23T13:45:49;11.00;99.90
5023;DHT22;2530;47.990;7.866;2024-03-23T13:48:16;11.00;99.90
5023;DHT22;2530;47.990;7.866;2024-03-23T13:50:43;11.10;99.90
5023;DHT22;2530;47.990;7.866;2024-03-23T13:53:08;10.90;99.90
5023;DHT22;2530;47.990;7.866;2024-03-23T13:55:34;11.00;99.90
5023;DHT22;2530;47.990;7.866;2024-03-23T14:02:52;11.50;99.90
5023;DHT22;2530;47.990;7.866;2024-03-23T14:05:17;11.50;99.90
5023;DHT22;2530;47.990;7.866;2024-03-23T14:10:09;11.40;1.00
5023;DHT22;2530;47.990;7.866;2024-03-23T14:17:32;11.30;1.00
5023;DHT22;2530;47.990;7.866;2024-03-23T14:19:58;11.80;1.00
5023;DHT22;2530;47.990;7.866;2024-03-23T14:24:53;11.10;1.00
5023;DHT22;2530;47.990;7.866;2024-03-23T14:27:19;10.80;1.00
5023;DHT22;2530;47.990;7.866;2024-03-23T14:29:48;11.00;1.00
5023;DHT22;2530;47.990;7.866;2024-03-23T14:32:14;10.60;1.00
5023;DHT22;2530;47.990;7.866;2024-03-23T14:34:40;10.70;1.00
5023;DHT22;2530;47.990;7.866;2024-03-23T14:37:06;10.70;1.00
5023;DHT22;2530;47.990;7.866;2024-03-23T14:39:32;10.80;1.00
5023;DHT22;2530;47.990;7.866;2024-03-23T14:42:00;10.90;1.00
5023;DHT22;2530;47.990;7.866;2024-03-23T14:46:51;10.10;1.00
5023;DHT22;2530;47.990;7.866;2024-03-23T14:49:17;10.40;1.00
5023;DHT22;2530;47.990;7.866;2024-03-23T14:54:08;10.10;1.00
5023;DHT22;2530;47.990;7.866;2024-03-23T14:56:34;9.90;99.90
5023;DHT22;2530;47.990;7.866;2024-03-23T15:01:26;9.50;99.90
5023;DHT22;2530;47.990;7.866;2024-03-23T15:08:45;9.90;99.90
5023;DHT22;2530;47.990;7.866;2024-03-23T15:16:03;9.30;99.90
5023;DHT22;2530;47.990;7.866;2024-03-23T15:18:29;9.40;99.90
5023;DHT22;2530;47.990;7.866;2024-03-23T15:20:56;9.30;99.90
5023;DHT22;2530;47.990;7.866;2024-03-23T15:23:22;9.30;99.90
5023;DHT22;2530;47.990;7.866;2024-03-23T15:25:58;9.30;99.90
5023;DHT22;2530;47.990;7.866;2024-03-23T15:30:52;9.90;99.90
5023;DHT22;2530;47.990;7.866;2024-03-23T15:35:43;9.30;99.90
5023;DHT22;2530;47.990;7.866;2024-03-23T15:38:08;9.50;99.90
5023;DHT22;2530;47.990;7.866;2024-03-23T15:42:15;9.40;99.90
5023;DHT22;2530;47.990;7.866;2024-03-23T15:44:41;9.40;99.90
5023;DHT22;2530;47.990;7.866;2024-03-23T15:47:06;8.90;99.90
5023;DHT22;2530;47.990;7.866;2024-03-23T15:49:32;9.40;99.90
5023;DHT22;2530;47.990;7.866;2024-03-23T15:51:57;9.40;99.90
5023;DHT22;2530;47.990;7.866;2024-03-23T15:54:23;9.10;99.90
5023;DHT22;2530;47.990;7.866;2024-03-23T15:56:49;8.90;99.90
5023;DHT22;2530;47.990;7.866;2024-03-23T15:59:14;9.00;99.90
5023;DHT22;2530;47.990;7.866;2024-03-23T16:01:40;9.20;99.90
5023;DHT22;2530;47.990;7.866;2024-03-23T16:04:05;8.60;99.90
5023;DHT22;2530;47.990;7.866;2024-03-23T16:06:30;8.80;99.90
5023;DHT22;2530;47.990;7.866;2024-03-23T16:08:56;9.20;99.90
5023;DHT22;2530;47.990;7.866;2024-03-23T16:11:22;9.00;99.90
5023;DHT22;2530;47.990;7.866;2024-03-23T16:13:47;8.50;99.90
5023;DHT22;2530;47.990;7.866;2024-03-23T16:16:13;7.60;99.90
5023;DHT22;2530;47.990;7.866;2024-03-23T16:18:39;6.70;99.90
5023;DHT22;2530;47.990;7.866;2024-03-23T16:21:52;6.20;99.90
5023;DHT22;2530;47.990;7.866;2024-03-23T16:24:18;6.10;99.90
5023;DHT22;2530;47.990;7.866;2024-03-23T16:26:44;6.00;99.90
5023;DHT22;2530;47.990;7.866;2024-03-23T16:29:11;5.50;99.90
5023;DHT22;2530;47.990;7.866;2024-03-23T16:31:36;5.60;99.90
5023;DHT22;2530;47.990;7.866;2024-03-23T16:34:02;5.70;99.90
5023;DHT22;2530;47.990;7.866;2024-03-23T16:36:27;5.90;99.90
5023;DHT22;2530;47.990;7.866;2024-03-23T16:38:53;5.80;99.90
5023;DHT22;2530;47.990;7.866;2024-03-23T16:41:19;6.20;99.90
5023;DHT22;2530;47.990;7.866;2024-03-23T16:43:45;6.60;99.90
5023;DHT22;2530;47.990;7.866;2024-03-23T16:46:15;6.40;99.90
5023;DHT22;2530;47.990;7.866;2024-03-23T16:48:44;6.50;99.90
5023;DHT22;2530;47.990;7.866;2024-03-23T16:51:11;6.50;99.90
5023;DHT22;2530;47.990;7.866;2024-03-23T16:53:37;6.40;99.90
5023;DHT22;2530;47.990;7.866;2024-03-23T16:56:07;6.80;99.90
5023;DHT22;2530;47.990;7.866;2024-03-23T16:58:34;7.20;99.90
5023;DHT22;2530;47.990;7.866;2024-03-23T17:01:03;7.00;99.90
5023;DHT22;2530;47.990;7.866;2024-03-23T17:03:30;7.30;99.90
5023;DHT22;2530;47.990;7.866;2024-03-23T17:05:55;7.20;99.90
5023;DHT22;2530;47.990;7.866;2024-03-23T17:08:21;7.30;99.90
5023;DHT22;2530;47.990;7.866;2024-03-23T17:10:47;6.70;99.90
5023;DHT22;2530;47.990;7.866;2024-03-23T17:13:13;7.00;99.90
5023;DHT22;2530;47.990;7.866;2024-03-23T17:15:45;6.70;99.90
5023;DHT22;2530;47.990;7.866;2024-03-23T17:18:11;6.90;99.90
5023;DHT22;2530;47.990;7.866;2024-03-23T17:20:37;7.00;99.90
5023;DHT22;2530;47.990;7.866;2024-03-23T17:23:03;6.90;99.90
5023;DHT22;2530;47.990;7.866;2024-03-23T17:25:28;7.00;99.90
5023;DHT22;2530;47.990;7.866;2024-03-23T17:27:54;6.50;99.90
5023;DHT22;2530;47.990;7.866;2024-03-23T17:30:20;6.90;99.90
5023;DHT22;2530;47.990;7.866;2024-03-23T17:32:46;6.50;99.90
5023;DHT22;2530;47.990;7.866;2024-03-23T17:35:12;7.20;99.90
5023;DHT22;2530;47.990;7.866;2024-03-23T17:37:38;6.80;99.90
5023;DHT22;2530;47.990;7.866;2024-03-23T17:40:05;4.60;99.90
5023;DHT22;2530;47.990;7.866;2024-03-23T17:42:34;7.20;99.90
5023;DHT22;2530;47.990;7.866;2024-03-23T17:45:00;6.70;99.90
5023;DHT22;2530;47.990;7.866;2024-03-23T17:47:25;6.50;99.90
5023;DHT22;2530;47.990;7.866;2024-03-23T17:49:52;6.90;99.90
5023;DHT22;2530;47.990;7.866;2024-03-23T17:52:17;6.40;99.90
5023;DHT22;2530;47.990;7.866;2024-03-23T17:54:43;6.60;99.90
5023;DHT22;2530;47.990;7.866;2024-03-23T17:57:08;6.60;99.90
5023;DHT22;2530;47.990;7.866;2024-03-23T17:59:34;8.50;99.90
5023;DHT22;2530;47.990;7.866;2024-03-23T18:02:00;6.60;99.90
5023;DHT22;2530;47.990;7.866;2024-03-23T18:04:26;6.30;99.90
5023;DHT22;2530;47.990;7.866;2024-03-23T18:06:52;7.00;99.90
5023;DHT22;2530;47.990;7.866;2024-03-23T18:09:17;6.70;99.90
5023;DHT22;2530;47.990;7.866;2024-03-23T18:11:43;8.60;99.90
5023;DHT22;2530;47.990;7.866;2024-03-23T18:14:09;6.80;99.90
5023;DHT22;2530;47.990;7.866;2024-03-23T18:16:34;7.20;99.90
5023;DHT22;2530;47.990;7.866;2024-03-23T18:19:00;7.20;99.90
5023;DHT22;2530;47.990;7.866;2024-03-23T18:21:25;7.20;99.90
5023;DHT22;2530;47.990;7.866;2024-03-23T18:23:51;7.00;99.90
5023;DHT22;2530;47.990;7.866;2024-03-23T18:28:51;7.10;99.90
5023;DHT22;2530;47.990;7.866;2024-03-23T18:31:17;7.10;99.90
5023;DHT22;2530;47.990;7.866;2024-03-23T18:33:42;6.90;99.90
5023;DHT22;2530;47.990;7.866;2024-03-23T18:36:08;5.70;99.90
5023;DHT22;2530;47.990;7.866;2024-03-23T18:38:36;7.10;99.90
5023;DHT22;2530;47.990;7.866;2024-03-23T18:41:01;8.30;99.90
5023;DHT22;2530;47.990;7.866;2024-03-23T18:43:27;7.80;99.90
5023;DHT22;2530;47.990;7.866;2024-03-23T18:45:53;7.20;99.90
5023;DHT22;2530;47.990;7.866;2024-03-23T18:48:19;6.80;99.90
5023;DHT22;2530;47.990;7.866;2024-03-23T18:50:44;6.80;99.90
5023;DHT22;2530;47.990;7.866;2024-03-23T18:53:10;6.60;99.90
5023;DHT22;2530;47.990;7.866;2024-03-23T18:55:40;6.10;99.90
5023;DHT22;2530;47.990;7.866;2024-03-23T18:58:05;7.20;99.90
5023;DHT22;2530;47.990;7.866;2024-03-23T19:00:33;6.40;99.90
5023;DHT22;2530;47.990;7.866;2024-03-23T19:03:00;6.70;99.90
5023;DHT22;2530;47.990;7.866;2024-03-23T19:05:25;7.20;99.90
5023;DHT22;2530;47.990;7.866;2024-03-23T19:07:51;7.10;99.90
5023;DHT22;2530;47.990;7.866;2024-03-23T19:10:17;6.30;99.90
5023;DHT22;2530;47.990;7.866;2024-03-23T19:12:49;7.30;99.90
5023;DHT22;2530;47.990;7.866;2024-03-23T19:15:15;7.20;99.90
5023;DHT22;2530;47.990;7.866;2024-03-23T19:17:40;7.30;99.90
5023;DHT22;2530;47.990;7.866;2024-03-23T19:20:06;7.00;99.90
5023;DHT22;2530;47.990;7.866;2024-03-23T19:22:32;7.10;99.90
5023;DHT22;2530;47.990;7.866;2024-03-23T19:24:58;6.50;99.90
5023;DHT22;2530;47.990;7.866;2024-03-23T19:27:26;6.50;99.90
5023;DHT22;2530;47.990;7.866;2024-03-23T19:29:52;6.10;99.90
5023;DHT22;2530;47.990;7.866;2024-03-23T19:32:17;5.60;99.90
5023;DHT22;2530;47.990;7.866;2024-03-23T19:34:43;4.80;99.90
5023;DHT22;2530;47.990;7.866;2024-03-23T19:37:08;5.00;99.90
5023;DHT22;2530;47.990;7.866;2024-03-23T19:42:00;3.90;99.90
5023;DHT22;2530;47.990;7.866;2024-03-23T19:44:26;4.00;99.90
5023;DHT22;2530;47.990;7.866;2024-03-23T19:46:52;4.10;99.90
5023;DHT22;2530;47.990;7.866;2024-03-23T19:51:44;3.40;99.90
5023;DHT22;2530;47.990;7.866;2024-03-23T19:54:10;3.30;99.90
5023;DHT22;2530;47.990;7.866;2024-03-23T19:56:36;2.90;99.90
5023;DHT22;2530;47.990;7.866;2024-03-23T19:59:02;3.70;99.90
5023;DHT22;2530;47.990;7.866;2024-03-23T20:01:28;3.70;99.90
5023;DHT22;2530;47.990;7.866;2024-03-23T20:03:54;3.40;99.90
5023;DHT22;2530;47.990;7.866;2024-03-23T20:06:19;3.60;99.90
5023;DHT22;2530;47.990;7.866;2024-03-23T20:08:46;3.90;99.90
5023;DHT22;2530;47.990;7.866;2024-03-23T20:11:12;4.00;99.90
5023;DHT22;2530;47.990;7.866;2024-03-23T20:13:38;4.20;99.90
5023;DHT22;2530;47.990;7.866;2024-03-23T20:16:03;3.80;99.90
5023;DHT22;2530;47.990;7.866;2024-03-23T20:18:30;4.30;99.90
5023;DHT22;2530;47.990;7.866;2024-03-23T20:21:02;4.50;99.90
5023;DHT22;2530;47.990;7.866;2024-03-23T20:23:29;4.10;99.90
5023;DHT22;2530;47.990;7.866;2024-03-23T20:25:56;4.30;99.90
5023;DHT22;2530;47.990;7.866;2024-03-23T20:28:23;3.80;99.90
5023;DHT22;2530;47.990;7.866;2024-03-23T20:30:59;3.90;99.90
5023;DHT22;2530;47.990;7.866;2024-03-23T20:33:25;4.20;99.90
5023;DHT22;2530;47.990;7.866;2024-03-23T20:35:51;4.00;99.90
5023;DHT22;2530;47.990;7.866;2024-03-23T20:38:18;4.40;99.90
5023;DHT22;2530;47.990;7.866;2024-03-23T20:40:43;4.10;99.90
5023;DHT22;2530;47.990;7.866;2024-03-23T20:43:10;4.00;99.90
5023;DHT22;2530;47.990;7.866;2024-03-23T20:45:36;4.50;99.90
5023;DHT22;2530;47.990;7.866;2024-03-23T20:48:03;4.10;99.90
5023;DHT22;2530;47.990;7.866;2024-03-23T20:50:29;3.90;99.90
5023;DHT22;2530;47.990;7.866;2024-03-23T20:52:54;4.30;99.90
5023;DHT22;2530;47.990;7.866;2024-03-23T20:55:21;4.50;99.90
5023;DHT22;2530;47.990;7.866;2024-03-23T20:57:46;4.10;99.90
5023;DHT22;2530;47.990;7.866;2024-03-23T21:00:13;4.30;99.90
5023;DHT22;2530;47.990;7.866;2024-03-23T21:02:39;4.40;99.90
5023;DHT22;2530;47.990;7.866;2024-03-23T21:05:05;4.50;99.90